This is the latest recevied weather packets stored in our database for station/object AC5CM. If no packets are shown the sender has not sent any weather packets the latest 1 day(s).
| Time | Temp. | Humidity | Pressure | Rain* | Wind** | Luminosity | Snow |
|---|---|---|---|---|---|---|---|
| 1778100245 | 29.44° C | 78% | 1009.4 hPa | 0 mm | - | - | - |
| 1778099336 | 30° C | 75% | 1009.5 hPa | 0 mm | - | - | - |
| 1778097516 | 30.56° C | 73% | 1009.8 hPa | 0 mm | - | - | - |
| 1778096607 | 30° C | 73% | 1009.9 hPa | 0 mm | - | - | - |
| 1778096305 | 29.44° C | 75% | 1010.1 hPa | 0 mm | - | - | - |
| 1778093272 | 30° C | 76% | 1010.5 hPa | 0 mm | - | - | - |
| 1778092666 | 30.56° C | 73% | 1010.5 hPa | 0 mm | - | - | - |
| 1778092064 | 30.56° C | 73% | 1010.6 hPa | 0 mm | - | - | - |
| 1778091459 | 30° C | 77% | 1010.9 hPa | 0 mm | - | - | - |
| 1778091157 | 30° C | 77% | 1011.1 hPa | 0 mm | - | - | - |
| 1778090554 | 30° C | 76% | 1011.2 hPa | 0 mm | - | - | - |
| 1778089040 | 28.33° C | 81% | 1011.3 hPa | 0 mm | - | - | - |
| 1778087222 | 28.89° C | 80% | 1011.7 hPa | 0 mm | - | - | - |
| 1778086617 | 27.78° C | 83% | 1011.7 hPa | 0 mm | - | - | - |
| 1778086313 | 27.78° C | 83% | 1011.9 hPa | 0 mm | - | - | - |
| 1778085708 | 27.78° C | 83% | 1011.8 hPa | 0 mm | - | - | - |
| 1778085404 | 27.78° C | 85% | 1011.6 hPa | 0 mm | - | - | - |
| 1778085099 | 27.78° C | 86% | 1011.5 hPa | 0 mm | - | - | - |
| 1778083887 | 26.67° C | 88% | 1011.5 hPa | 0 mm | - | - | - |
| 1778083281 | 26.67° C | 89% | 1011.4 hPa | 0 mm | - | - | - |
| 1778082980 | 26.67° C | 89% | 1011.2 hPa | 0 mm | - | - | - |
| 1778082677 | 26.11° C | 91% | 1011.3 hPa | 0 mm | - | - | - |
| 1778081539 | 26.11° C | 91% | 1011.1 hPa | 0 mm | - | - | - |
| 1778080933 | 26.11° C | 90% | 1010.9 hPa | 0 mm | - | - | - |
| 1778080328 | 26.11° C | 90% | 1011 hPa | 0 mm | - | - | - |
* Rain latest hour (hover to see other rain measurements)
** Current wind speed in m/s (hover to see current wind gust speed)